createdAt,value
2023-04-17T00:00:33.671Z,25.65
2023-04-17T00:01:33.672Z,25.63
2023-04-17T00:02:33.770Z,25.64
2023-04-17T00:03:33.792Z,25.63
2023-04-17T00:04:33.913Z,25.63
2023-04-17T00:05:33.714Z,25.63
2023-04-17T00:06:33.706Z,25.65
2023-04-17T00:07:33.693Z,25.64
2023-04-17T00:08:33.714Z,25.64
2023-04-17T00:09:33.707Z,25.62
2023-04-17T00:10:33.720Z,25.64
2023-04-17T00:11:33.769Z,25.63
2023-04-17T00:12:33.798Z,25.63
2023-04-17T00:13:33.869Z,25.59
2023-04-17T00:14:33.861Z,25.60
2023-04-17T00:15:33.871Z,25.57
2023-04-17T00:16:33.947Z,25.57
2023-04-17T00:17:33.948Z,25.58
2023-04-17T00:18:33.905Z,25.57
2023-04-17T00:19:33.904Z,25.58
2023-04-17T00:20:33.922Z,25.56
2023-04-17T00:21:33.918Z,25.56
2023-04-17T00:22:33.955Z,25.54
2023-04-17T00:23:33.937Z,25.54
2023-04-17T00:24:33.950Z,25.54
2023-04-17T00:25:33.946Z,25.53
2023-04-17T00:26:33.981Z,25.52
2023-04-17T00:27:33.967Z,25.50
2023-04-17T00:28:33.978Z,25.49
2023-04-17T00:29:33.981Z,25.49
2023-04-17T00:30:33.989Z,25.49
2023-04-17T00:31:34.035Z,25.48
2023-04-17T00:32:34.030Z,25.46
2023-04-17T00:33:34.007Z,25.45
2023-04-17T00:34:34.035Z,25.45
2023-04-17T00:35:34.040Z,25.42
2023-04-17T00:36:34.030Z,25.40
2023-04-17T00:37:34.053Z,25.38
2023-04-17T00:38:34.048Z,25.36
2023-04-17T00:39:34.081Z,25.36
2023-04-17T00:40:34.067Z,25.34
2023-04-17T00:41:34.072Z,25.34
2023-04-17T00:42:34.078Z,25.35
2023-04-17T00:43:34.081Z,25.31
2023-04-17T00:44:34.085Z,25.30
2023-04-17T00:45:34.124Z,25.31
2023-04-17T00:46:34.105Z,25.30
2023-04-17T00:47:34.151Z,25.29
2023-04-17T00:48:34.120Z,25.27
2023-04-17T00:49:34.130Z,25.26
2023-04-17T00:50:34.154Z,25.26
2023-04-17T00:51:34.153Z,25.24
2023-04-17T00:52:34.163Z,25.25
2023-04-17T00:53:34.173Z,25.23
2023-04-17T00:54:34.169Z,25.24
2023-04-17T00:55:34.170Z,25.22
2023-04-17T00:56:34.161Z,25.21
2023-04-17T00:57:34.191Z,25.18
2023-04-17T00:58:34.188Z,25.17
2023-04-17T00:59:34.184Z,25.19
2023-04-17T01:00:34.201Z,25.17
2023-04-17T01:01:34.276Z,25.16
2023-04-17T01:02:34.300Z,25.15
2023-04-17T01:03:34.343Z,25.13
2023-04-17T01:04:34.213Z,25.10
2023-04-17T01:05:34.213Z,25.10
2023-04-17T01:06:34.232Z,25.12
2023-04-17T01:07:34.216Z,25.12
2023-04-17T01:08:34.223Z,25.11
2023-04-17T01:09:34.210Z,25.10
2023-04-17T01:10:34.230Z,25.10
2023-04-17T01:11:34.236Z,25.08
2023-04-17T01:12:34.221Z,25.05
2023-04-17T01:13:34.254Z,25.02
2023-04-17T01:14:34.258Z,25.03
2023-04-17T01:15:34.267Z,25.04
2023-04-17T01:16:34.303Z,24.99
2023-04-17T01:17:34.346Z,25.02
2023-04-17T01:18:34.268Z,24.98
2023-04-17T01:19:34.292Z,24.95
2023-04-17T01:20:34.306Z,24.97
2023-04-17T01:21:34.306Z,24.94
2023-04-17T01:22:34.303Z,24.94
2023-04-17T01:23:34.311Z,24.93
2023-04-17T01:24:34.323Z,24.94
2023-04-17T01:25:34.328Z,24.94
2023-04-17T01:26:34.345Z,24.92
2023-04-17T01:27:34.356Z,24.94
2023-04-17T01:28:34.369Z,24.94
2023-04-17T01:29:34.360Z,24.92
2023-04-17T01:30:34.403Z,24.92
2023-04-17T01:31:34.358Z,24.94
2023-04-17T01:32:34.390Z,24.91
2023-04-17T01:33:34.364Z,24.91
2023-04-17T01:34:36.142Z,24.90
2023-04-17T01:35:34.374Z,24.91
2023-04-17T01:36:34.389Z,24.87
2023-04-17T01:37:34.380Z,24.86
2023-04-17T01:38:34.363Z,24.83
2023-04-17T01:39:34.339Z,24.80
2023-04-17T01:40:34.366Z,24.80
2023-04-17T01:41:34.325Z,24.82
2023-04-17T01:42:34.332Z,24.75
2023-04-17T01:43:34.329Z,24.73
2023-04-17T01:44:34.309Z,24.68
2023-04-17T01:45:34.325Z,24.67
2023-04-17T01:46:34.389Z,24.64
2023-04-17T01:47:34.373Z,24.61
2023-04-17T01:48:34.294Z,24.59
2023-04-17T01:49:34.272Z,24.62
2023-04-17T01:50:34.289Z,24.60
2023-04-17T01:51:34.271Z,24.64
2023-04-17T01:52:34.276Z,24.63
2023-04-17T01:53:34.273Z,24.64
2023-04-17T01:54:34.254Z,24.65
2023-04-17T01:55:34.236Z,24.62
2023-04-17T01:56:34.244Z,24.62
2023-04-17T01:57:34.255Z,24.62
2023-04-17T01:58:34.238Z,24.66
2023-04-17T01:59:34.210Z,24.64
2023-04-17T02:00:34.229Z,24.65
2023-04-17T02:01:34.246Z,24.65
2023-04-17T02:02:34.370Z,24.64
2023-04-17T02:03:34.308Z,24.62
2023-04-17T02:04:34.231Z,24.63
2023-04-17T02:05:34.194Z,24.62
2023-04-17T02:06:34.187Z,24.61
2023-04-17T02:07:34.161Z,24.60
2023-04-17T02:08:34.151Z,24.63
2023-04-17T02:09:34.144Z,24.61
2023-04-17T02:10:34.136Z,24.61
2023-04-17T02:11:34.144Z,24.63
2023-04-17T02:12:34.134Z,24.64
2023-04-17T02:13:34.127Z,24.62
2023-04-17T02:14:34.134Z,24.64
2023-04-17T02:15:34.166Z,24.64
2023-04-17T02:16:34.160Z,24.64
2023-04-17T02:17:34.170Z,24.62
2023-04-17T02:18:34.080Z,24.60
2023-04-17T02:19:34.085Z,24.61
2023-04-17T02:20:34.076Z,24.60
2023-04-17T02:21:34.087Z,24.60
2023-04-17T02:22:34.070Z,24.60
2023-04-17T02:23:34.047Z,24.60
2023-04-17T02:24:34.061Z,24.57
2023-04-17T02:25:34.050Z,24.57
2023-04-17T02:26:34.048Z,24.56
2023-04-17T02:27:34.045Z,24.54
2023-04-17T02:28:34.018Z,24.56
2023-04-17T02:29:34.014Z,24.55
2023-04-17T02:30:34.022Z,24.57
2023-04-17T02:31:34.094Z,24.53
2023-04-17T02:32:34.050Z,24.55
2023-04-17T02:33:33.991Z,24.56
2023-04-17T02:34:33.985Z,24.56
2023-04-17T02:35:34.009Z,24.59
2023-04-17T02:36:33.988Z,24.55
2023-04-17T02:37:33.963Z,24.58
2023-04-17T02:38:33.967Z,24.58
2023-04-17T02:39:33.961Z,24.58
2023-04-17T02:40:33.961Z,24.59
2023-04-17T02:41:33.952Z,24.59
2023-04-17T02:42:33.943Z,24.61
2023-04-17T02:43:33.985Z,24.60
2023-04-17T02:44:33.947Z,24.61
2023-04-17T02:45:33.944Z,24.62
2023-04-17T02:46:33.971Z,24.60
2023-04-17T02:47:33.952Z,24.62
2023-04-17T02:48:33.928Z,24.63
2023-04-17T02:49:33.909Z,24.63
2023-04-17T02:50:33.914Z,24.66
2023-04-17T02:51:33.896Z,24.65
2023-04-17T02:52:33.908Z,24.64
2023-04-17T02:53:33.891Z,24.65
2023-04-17T02:54:33.876Z,24.66
2023-04-17T02:55:33.885Z,24.66
2023-04-17T02:56:33.887Z,24.66
2023-04-17T02:57:33.856Z,24.66
2023-04-17T02:58:33.855Z,24.68
2023-04-17T02:59:33.854Z,24.66
2023-04-17T03:00:33.899Z,24.68
2023-04-17T03:01:33.882Z,24.69
2023-04-17T03:02:33.888Z,24.69
2023-04-17T03:03:33.891Z,24.69
2023-04-17T03:04:33.811Z,24.69
2023-04-17T03:05:33.802Z,24.70
2023-04-17T03:06:33.819Z,24.71
2023-04-17T03:07:33.800Z,24.73
2023-04-17T03:08:33.786Z,24.72
2023-04-17T03:09:33.792Z,24.74
2023-04-17T03:10:33.794Z,24.73
2023-04-17T03:11:33.798Z,24.73
2023-04-17T03:12:33.761Z,24.75
2023-04-17T03:13:33.774Z,24.77
2023-04-17T03:14:33.758Z,24.78
2023-04-17T03:15:33.763Z,24.76
2023-04-17T03:16:33.852Z,24.77
2023-04-17T03:17:33.737Z,24.80
2023-04-17T03:18:33.744Z,24.78
2023-04-17T03:19:33.713Z,24.79
2023-04-17T03:20:33.717Z,24.77
2023-04-17T03:21:33.726Z,24.79
2023-04-17T03:22:33.703Z,24.78
2023-04-17T03:23:33.699Z,24.79
2023-04-17T03:24:33.688Z,24.80
2023-04-17T03:25:33.713Z,24.80
2023-04-17T03:26:33.678Z,24.80
2023-04-17T03:27:33.685Z,24.81
2023-04-17T03:28:33.687Z,24.82
2023-04-17T03:29:33.668Z,24.78
2023-04-17T03:30:33.650Z,24.82
2023-04-17T03:31:33.670Z,24.83
2023-04-17T03:32:33.667Z,24.81
2023-04-17T03:33:33.643Z,24.80
2023-04-17T03:34:33.633Z,24.82
2023-04-17T03:35:33.637Z,24.83
2023-04-17T03:36:33.635Z,24.83
2023-04-17T03:37:33.607Z,24.84
2023-04-17T03:38:33.606Z,24.82
2023-04-17T03:39:33.605Z,24.81
2023-04-17T03:40:33.830Z,24.82
2023-04-17T03:41:33.620Z,24.83
2023-04-17T03:42:33.586Z,24.83
2023-04-17T03:43:33.583Z,24.83
2023-04-17T03:44:33.569Z,24.82
2023-04-17T03:45:33.576Z,24.84
2023-04-17T03:46:33.552Z,24.81
2023-04-17T03:47:33.593Z,24.82
2023-04-17T03:48:33.551Z,24.80
2023-04-17T03:49:33.518Z,24.82
2023-04-17T03:50:33.576Z,24.82
2023-04-17T03:51:33.515Z,24.82
2023-04-17T03:52:33.495Z,24.83
2023-04-17T03:53:33.498Z,24.82
2023-04-17T03:54:33.496Z,24.81
2023-04-17T03:55:33.496Z,24.81
2023-04-17T03:56:33.466Z,24.81
2023-04-17T03:57:33.476Z,24.81
2023-04-17T03:58:33.459Z,24.80
2023-04-17T03:59:33.444Z,24.83
2023-04-17T04:00:33.451Z,24.79
2023-04-17T04:01:33.440Z,24.81
2023-04-17T04:02:33.495Z,24.80
2023-04-17T04:03:33.598Z,24.77
2023-04-17T04:04:33.713Z,24.79
2023-04-17T04:05:33.414Z,24.79
2023-04-17T04:06:33.410Z,24.78
2023-04-17T04:07:33.399Z,24.78
2023-04-17T04:08:33.387Z,24.80
2023-04-17T04:09:33.393Z,24.79
2023-04-17T04:10:33.392Z,24.80
2023-04-17T04:11:33.372Z,24.79
2023-04-17T04:12:33.385Z,24.79
2023-04-17T04:13:33.362Z,24.80
2023-04-17T04:14:33.348Z,24.80
2023-04-17T04:15:33.362Z,24.80
2023-04-17T04:16:33.477Z,24.82
2023-04-17T04:17:33.382Z,24.83
2023-04-17T04:18:33.334Z,24.83
2023-04-17T04:19:33.327Z,24.80
2023-04-17T04:20:33.348Z,24.81
2023-04-17T04:21:33.317Z,24.80
2023-04-17T04:22:33.303Z,24.80
2023-04-17T04:23:33.300Z,24.82
2023-04-17T04:24:33.304Z,24.83
2023-04-17T04:25:33.284Z,24.83
2023-04-17T04:26:33.313Z,24.82
2023-04-17T04:27:33.280Z,24.79
2023-04-17T04:28:33.291Z,24.80
2023-04-17T04:29:33.262Z,24.80
2023-04-17T04:30:33.265Z,24.80
2023-04-17T04:31:33.305Z,24.80
2023-04-17T04:32:33.274Z,24.79
2023-04-17T04:33:33.290Z,24.80
2023-04-17T04:34:33.277Z,24.81
2023-04-17T04:35:33.290Z,24.79
2023-04-17T04:36:33.294Z,24.78
2023-04-17T04:37:33.290Z,24.80
2023-04-17T04:38:33.413Z,24.80
2023-04-17T04:39:33.301Z,24.80
2023-04-17T04:40:33.316Z,24.79
2023-04-17T04:41:33.331Z,24.79
2023-04-17T04:42:33.342Z,24.81
2023-04-17T04:43:33.317Z,24.80
2023-04-17T04:44:33.347Z,24.81
2023-04-17T04:45:33.336Z,24.82
2023-04-17T04:46:33.375Z,24.81
2023-04-17T04:47:33.408Z,24.82
2023-04-17T04:48:33.356Z,24.83
2023-04-17T04:49:33.350Z,24.79
2023-04-17T04:50:33.375Z,24.84
2023-04-17T04:51:33.364Z,24.79
2023-04-17T04:52:33.366Z,24.83
2023-04-17T04:53:33.384Z,24.84
2023-04-17T04:54:33.371Z,24.81
2023-04-17T04:55:33.388Z,24.80
2023-04-17T04:56:33.387Z,24.81
2023-04-17T04:57:33.406Z,24.83
2023-04-17T04:58:33.402Z,24.81
2023-04-17T04:59:33.408Z,24.79
2023-04-17T05:00:33.397Z,24.81
2023-04-17T05:01:33.506Z,24.81
2023-04-17T05:02:33.596Z,24.82
2023-04-17T05:03:33.513Z,24.81
2023-04-17T05:04:33.565Z,24.81
2023-04-17T05:05:33.459Z,24.81
2023-04-17T05:06:33.466Z,24.84
2023-04-17T05:07:33.470Z,24.81
2023-04-17T05:08:33.471Z,24.85
2023-04-17T05:09:33.474Z,24.85
2023-04-17T05:10:33.466Z,24.88
2023-04-17T05:11:33.477Z,24.85
2023-04-17T05:12:33.474Z,24.86
2023-04-17T05:13:33.506Z,24.87
2023-04-17T05:14:33.487Z,24.88
2023-04-17T05:15:33.485Z,24.89
2023-04-17T05:16:33.547Z,24.90
2023-04-17T05:17:33.512Z,24.90
2023-04-17T05:18:33.489Z,24.88
2023-04-17T05:19:33.516Z,24.90
2023-04-17T05:20:33.519Z,24.92
2023-04-17T05:21:33.521Z,24.96
2023-04-17T05:22:33.544Z,24.94
2023-04-17T05:23:33.517Z,24.96
2023-04-17T05:24:33.545Z,25.02
2023-04-17T05:25:33.537Z,25.06
2023-04-17T05:26:33.566Z,25.29
2023-04-17T05:27:33.601Z,25.39
2023-04-17T05:28:33.559Z,25.58
2023-04-17T05:29:33.573Z,25.87
2023-04-17T05:30:33.578Z,26.40
2023-04-17T05:31:33.602Z,26.57
2023-04-17T05:32:33.629Z,26.72
2023-04-17T05:33:33.596Z,27.05
2023-04-17T05:34:33.610Z,27.02
2023-04-17T05:35:33.620Z,27.06
2023-04-17T05:36:33.642Z,27.16
2023-04-17T05:37:33.664Z,27.08
2023-04-17T05:38:33.654Z,27.72
2023-04-17T05:39:33.660Z,27.42
2023-04-17T05:40:33.696Z,27.48
2023-04-17T05:41:34.217Z,27.52
2023-04-17T05:42:33.712Z,27.45
2023-04-17T05:43:33.721Z,27.28
2023-04-17T05:44:33.727Z,27.13
2023-04-17T05:45:33.751Z,27.05
2023-04-17T05:46:33.759Z,27.91
2023-04-17T05:47:33.749Z,28.35
2023-04-17T05:48:34.234Z,27.71
2023-04-17T05:49:33.752Z,27.98
2023-04-17T05:50:33.771Z,27.64
2023-04-17T05:51:33.772Z,27.37
2023-04-17T05:52:33.771Z,27.39
2023-04-17T05:53:33.804Z,27.20
2023-04-17T05:54:33.813Z,27.03
2023-04-17T05:55:33.872Z,26.97
2023-04-17T05:56:33.951Z,26.92
2023-04-17T05:57:33.988Z,26.94
2023-04-17T05:58:34.066Z,26.87
2023-04-17T05:59:34.106Z,27.20
2023-04-17T06:00:34.160Z,27.31
2023-04-17T06:01:34.243Z,27.30
2023-04-17T06:02:34.387Z,26.91
2023-04-17T06:03:34.530Z,27.40
2023-04-17T06:04:34.710Z,27.08
2023-04-17T06:05:34.505Z,26.99
2023-04-17T06:06:34.498Z,27.01
2023-04-17T06:07:34.546Z,26.84
2023-04-17T06:08:34.622Z,27.22
2023-04-17T06:09:34.669Z,26.99
2023-04-17T06:10:34.704Z,26.70
2023-04-17T06:11:34.773Z,26.27
2023-04-17T06:12:34.803Z,26.23
2023-04-17T06:13:34.865Z,26.22
2023-04-17T06:14:34.901Z,26.39
2023-04-17T06:15:34.951Z,26.32
2023-04-17T06:16:35.070Z,26.34
2023-04-17T06:17:35.080Z,26.33
2023-04-17T06:18:35.251Z,26.36
2023-04-17T06:19:35.133Z,26.17
2023-04-17T06:20:35.181Z,26.27
2023-04-17T06:21:35.221Z,27.04
2023-04-17T06:22:35.256Z,26.54
2023-04-17T06:23:35.289Z,26.61
2023-04-17T06:24:35.323Z,26.41
2023-04-17T06:25:35.362Z,26.41
2023-04-17T06:26:35.419Z,26.37
2023-04-17T06:27:36.801Z,26.58
2023-04-17T06:28:35.518Z,26.58
2023-04-17T06:29:35.524Z,26.59
2023-04-17T06:30:35.633Z,26.44
2023-04-17T06:31:35.790Z,26.65
2023-04-17T06:32:35.655Z,26.63
2023-04-17T06:33:35.676Z,26.56
2023-04-17T06:34:38.124Z,26.67
2023-04-17T06:35:36.719Z,26.83
2023-04-17T06:36:35.713Z,26.57
2023-04-17T06:37:35.672Z,26.95
2023-04-17T06:38:35.692Z,26.69
2023-04-17T06:39:35.677Z,26.71
2023-04-17T06:40:35.719Z,26.85
2023-04-17T06:41:35.660Z,26.69
2023-04-17T06:42:35.737Z,27.12
2023-04-17T06:43:35.662Z,26.91
2023-04-17T06:44:35.657Z,27.15
2023-04-17T06:45:35.648Z,27.06
2023-04-17T06:46:35.686Z,26.70
2023-04-17T06:47:35.663Z,26.95
2023-04-17T06:48:35.717Z,27.05
2023-04-17T06:49:35.617Z,26.77
2023-04-17T06:50:35.587Z,26.73
2023-04-17T06:51:35.656Z,26.55
2023-04-17T06:52:35.602Z,26.44
2023-04-17T06:53:35.604Z,26.38
2023-04-17T06:54:35.569Z,26.56
2023-04-17T06:55:35.581Z,26.37
2023-04-17T06:56:35.635Z,26.31
2023-04-17T06:57:35.752Z,26.47
2023-04-17T06:58:35.718Z,26.39
2023-04-17T06:59:35.753Z,26.37
2023-04-17T07:00:36.007Z,26.88
2023-04-17T07:01:35.897Z,26.96
2023-04-17T07:02:36.419Z,26.59
2023-04-17T07:03:36.121Z,26.50
2023-04-17T07:04:35.964Z,26.62
2023-04-17T07:05:35.908Z,26.45
2023-04-17T07:06:35.927Z,26.67
2023-04-17T07:07:36.015Z,26.95
2023-04-17T07:08:36.020Z,26.82
2023-04-17T07:09:36.082Z,26.96
2023-04-17T07:10:36.119Z,27.02
2023-04-17T07:11:36.159Z,26.55
2023-04-17T07:12:36.219Z,26.59
2023-04-17T07:13:36.234Z,26.47
2023-04-17T07:14:36.310Z,26.62
2023-04-17T07:15:36.316Z,26.84
2023-04-17T07:16:36.454Z,26.95
2023-04-17T07:17:36.834Z,27.09
2023-04-17T07:18:36.731Z,26.96
2023-04-17T07:19:36.450Z,26.81
2023-04-17T07:20:36.461Z,27.09
2023-04-17T07:21:36.480Z,26.85
2023-04-17T07:22:36.543Z,26.58
2023-04-17T07:23:36.519Z,26.69
2023-04-17T07:24:36.588Z,26.60
2023-04-17T07:25:36.592Z,26.37
2023-04-17T07:26:36.640Z,27.14
2023-04-17T07:27:36.743Z,27.24
2023-04-17T07:28:36.680Z,27.51
2023-04-17T07:29:36.742Z,27.42
2023-04-17T07:30:36.765Z,27.64
2023-04-17T07:31:36.827Z,27.32
2023-04-17T07:32:37.282Z,27.27
2023-04-17T07:33:39.535Z,27.13
2023-04-17T07:34:36.864Z,27.02
2023-04-17T07:35:36.846Z,27.15
2023-04-17T07:36:36.844Z,27.08
2023-04-17T07:37:36.861Z,26.89
2023-04-17T07:38:38.095Z,26.58
2023-04-17T07:39:37.257Z,26.77
2023-04-17T07:40:36.802Z,27.01
2023-04-17T07:41:36.800Z,26.74
2023-04-17T07:42:36.803Z,26.51
2023-04-17T07:43:36.784Z,26.54
2023-04-17T07:44:37.242Z,26.51
2023-04-17T07:45:38.064Z,26.74
2023-04-17T07:46:36.836Z,26.64
2023-04-17T07:47:36.805Z,26.40
2023-04-17T07:48:36.752Z,26.41
2023-04-17T07:49:36.734Z,26.46
2023-04-17T07:50:36.744Z,26.43
2023-04-17T07:51:36.751Z,26.55
2023-04-17T07:52:36.767Z,26.55
2023-04-17T07:53:36.753Z,26.27
2023-04-17T07:54:36.764Z,26.40
2023-04-17T07:55:36.778Z,26.59
2023-04-17T07:56:36.770Z,26.49
2023-04-17T07:57:36.802Z,26.42
2023-04-17T07:58:36.760Z,26.33
2023-04-17T07:59:36.786Z,26.37
2023-04-17T08:00:36.777Z,26.46
2023-04-17T08:01:36.784Z,26.41
2023-04-17T08:02:36.920Z,26.37
2023-04-17T08:03:37.023Z,26.20
2023-04-17T08:04:37.002Z,26.47
2023-04-17T08:05:36.918Z,26.33
2023-04-17T08:06:36.951Z,26.30
2023-04-17T08:07:37.253Z,26.32
2023-04-17T08:08:37.042Z,26.43
2023-04-17T08:09:37.081Z,26.45
2023-04-17T08:10:37.138Z,26.45
2023-04-17T08:11:49.482Z,26.62
2023-04-17T08:12:38.223Z,26.43
2023-04-17T08:13:37.185Z,26.55
2023-04-17T08:14:37.176Z,26.64
2023-04-17T08:15:39.063Z,26.62
2023-04-17T08:16:37.262Z,26.68
2023-04-17T08:17:37.856Z,26.62
2023-04-17T08:18:37.331Z,26.63
2023-04-17T08:19:37.387Z,26.60
2023-04-17T08:20:37.439Z,26.64
2023-04-17T08:21:37.513Z,26.41
2023-04-17T08:22:37.540Z,26.39
2023-04-17T08:23:37.573Z,26.36
2023-04-17T08:24:37.592Z,26.48
2023-04-17T08:25:37.585Z,25.73
2023-04-17T08:26:37.609Z,25.57
2023-04-17T08:27:37.649Z,25.91
2023-04-17T08:28:37.627Z,26.32
2023-04-17T08:29:37.668Z,26.60
2023-04-17T08:30:37.745Z,26.86
2023-04-17T08:31:37.758Z,27.04
2023-04-17T08:32:37.809Z,27.15
2023-04-17T08:33:37.787Z,27.51
2023-04-17T08:34:37.849Z,27.82
2023-04-17T08:35:37.887Z,28.06
2023-04-17T08:36:38.082Z,28.25
2023-04-17T08:37:38.269Z,28.49
2023-04-17T08:38:38.052Z,28.50
2023-04-17T08:39:38.291Z,28.50
2023-04-17T08:40:38.137Z,28.22
2023-04-17T08:41:38.070Z,28.11
2023-04-17T08:42:38.171Z,28.06
2023-04-17T08:43:38.196Z,28.36
2023-04-17T08:44:38.237Z,28.41
2023-04-17T08:45:38.276Z,28.11
2023-04-17T08:46:38.454Z,27.90
2023-04-17T08:47:38.325Z,27.99
2023-04-17T08:48:38.326Z,27.83
2023-04-17T08:49:38.312Z,27.87
2023-04-17T08:50:38.316Z,27.77
2023-04-17T08:51:38.307Z,27.72
2023-04-17T08:52:38.345Z,27.56
2023-04-17T08:53:38.437Z,27.39
2023-04-17T08:54:38.477Z,27.34
2023-04-17T08:55:38.533Z,27.32
2023-04-17T08:56:38.596Z,27.05
2023-04-17T08:57:38.648Z,27.08
2023-04-17T08:58:38.664Z,27.27
2023-04-17T08:59:38.740Z,27.19
2023-04-17T09:00:38.754Z,27.04
2023-04-17T09:01:38.878Z,26.98
2023-04-17T09:02:39.317Z,26.89
2023-04-17T09:03:38.986Z,26.94
2023-04-17T09:04:39.402Z,26.82
2023-04-17T09:05:38.918Z,26.99
2023-04-17T09:06:38.922Z,26.88
2023-04-17T09:07:38.997Z,26.78
2023-04-17T09:08:38.985Z,26.75
2023-04-17T09:09:38.982Z,26.73
2023-04-17T09:10:39.020Z,26.63
2023-04-17T09:11:39.021Z,26.58
2023-04-17T09:12:39.040Z,26.69
2023-04-17T09:13:39.071Z,26.77
2023-04-17T09:14:39.281Z,26.64
2023-04-17T09:15:39.180Z,26.22
2023-04-17T09:16:39.148Z,26.60
2023-04-17T09:17:39.356Z,26.65
2023-04-17T09:18:39.155Z,26.67
2023-04-17T09:19:39.190Z,26.61
2023-04-17T09:20:39.154Z,26.62
2023-04-17T09:21:39.172Z,26.52
2023-04-17T09:22:39.278Z,26.53
2023-04-17T09:23:39.181Z,26.53
2023-04-17T09:24:39.199Z,26.50
2023-04-17T09:25:39.242Z,26.28
2023-04-17T09:26:39.208Z,25.93
2023-04-17T09:27:39.277Z,25.99
2023-04-17T09:28:39.344Z,26.11
2023-04-17T09:29:39.254Z,26.02
2023-04-17T09:30:39.780Z,26.34
2023-04-17T09:31:39.547Z,26.17
2023-04-17T09:32:39.360Z,26.16
2023-04-17T09:33:39.386Z,26.42
2023-04-17T09:34:39.430Z,26.61
2023-04-17T09:35:40.543Z,26.95
2023-04-17T09:36:39.548Z,26.96
2023-04-17T09:37:39.573Z,26.94
2023-04-17T09:38:39.603Z,26.91
2023-04-17T09:39:39.674Z,26.57
2023-04-17T09:40:39.797Z,26.45
2023-04-17T09:41:39.745Z,26.32
2023-04-17T09:42:39.784Z,26.47
2023-04-17T09:43:39.814Z,26.53
2023-04-17T09:44:39.829Z,26.56
2023-04-17T09:45:39.859Z,26.46
2023-04-17T09:46:39.894Z,26.59
2023-04-17T09:47:39.887Z,26.14
2023-04-17T09:48:39.907Z,26.54
2023-04-17T09:49:39.923Z,26.62
2023-04-17T09:50:39.970Z,26.43
2023-04-17T09:51:39.971Z,26.44
2023-04-17T09:52:39.983Z,26.67
2023-04-17T09:53:40.010Z,26.46
2023-04-17T09:54:40.046Z,26.00
2023-04-17T09:55:40.014Z,26.36
2023-04-17T09:56:40.210Z,26.37
2023-04-17T09:57:40.271Z,25.72
2023-04-17T09:58:40.065Z,26.15
2023-04-17T09:59:40.042Z,26.26
2023-04-17T10:00:40.116Z,26.28
2023-04-17T10:01:40.174Z,26.22
2023-04-17T10:02:40.170Z,26.44
2023-04-17T10:03:40.328Z,26.38
2023-04-17T10:04:40.271Z,26.42
2023-04-17T10:05:40.196Z,26.54
2023-04-17T10:06:40.158Z,26.60
2023-04-17T10:07:40.215Z,26.40
2023-04-17T10:08:40.213Z,26.52
2023-04-17T10:09:40.237Z,26.41
2023-04-17T10:10:40.312Z,26.36
2023-04-17T10:11:40.291Z,26.37
2023-04-17T10:12:40.314Z,26.36
2023-04-17T10:13:40.317Z,26.92
2023-04-17T10:14:40.345Z,27.01
2023-04-17T10:15:40.393Z,26.86
2023-04-17T10:16:40.451Z,26.74
2023-04-17T10:17:40.851Z,26.44
2023-04-17T10:18:40.434Z,26.43
2023-04-17T10:19:40.449Z,26.30
2023-04-17T10:20:40.804Z,26.51
2023-04-17T10:21:40.478Z,26.17
2023-04-17T10:22:40.514Z,26.34
2023-04-17T10:23:40.518Z,26.37
2023-04-17T10:24:40.520Z,26.34
2023-04-17T10:25:40.808Z,26.57
2023-04-17T10:26:40.592Z,26.67
2023-04-17T10:27:40.606Z,26.63
2023-04-17T10:28:40.613Z,27.09
2023-04-17T10:29:40.636Z,26.54
2023-04-17T10:30:41.859Z,26.33
2023-04-17T10:31:40.669Z,26.78
2023-04-17T10:32:40.671Z,26.54
2023-04-17T10:33:40.655Z,26.54
2023-04-17T10:34:43.714Z,26.10
2023-04-17T10:35:40.648Z,26.54
2023-04-17T10:36:40.622Z,26.22
2023-04-17T10:37:40.625Z,26.82
2023-04-17T10:38:40.626Z,26.73
2023-04-17T10:39:40.603Z,26.66
2023-04-17T10:40:40.645Z,26.58
2023-04-17T10:41:40.590Z,26.67
2023-04-17T10:42:40.575Z,26.32
2023-04-17T10:43:40.597Z,26.63
2023-04-17T10:44:40.566Z,26.63
2023-04-17T10:45:40.600Z,26.78
2023-04-17T10:46:40.553Z,25.91
2023-04-17T10:47:40.945Z,26.51
2023-04-17T10:48:40.558Z,26.64
2023-04-17T10:49:40.525Z,26.71
2023-04-17T10:50:40.596Z,25.96
2023-04-17T10:51:40.533Z,26.34
2023-04-17T10:52:40.773Z,26.45
2023-04-17T10:53:40.523Z,26.57
2023-04-17T10:54:40.516Z,26.55
2023-04-17T10:55:40.524Z,26.62
2023-04-17T10:56:40.551Z,26.52
2023-04-17T10:57:40.507Z,26.52
2023-04-17T10:58:40.486Z,26.52
2023-04-17T10:59:40.494Z,26.48
2023-04-17T11:00:40.487Z,26.47
2023-04-17T11:01:40.550Z,26.48
2023-04-17T11:02:40.508Z,26.44
2023-04-17T11:03:40.469Z,26.41
2023-04-17T11:04:40.519Z,26.48
2023-04-17T11:05:40.451Z,26.42
2023-04-17T11:06:40.468Z,26.34
2023-04-17T11:07:40.442Z,26.29
2023-04-17T11:08:40.418Z,26.26
2023-04-17T11:09:40.449Z,25.79
2023-04-17T11:10:40.461Z,25.72
2023-04-17T11:11:44.592Z,26.09
2023-04-17T11:12:40.827Z,26.21
2023-04-17T11:13:40.396Z,26.26
2023-04-17T11:14:40.382Z,25.92
2023-04-17T11:15:40.847Z,26.03
2023-04-17T11:16:40.438Z,25.76
2023-04-17T11:17:40.417Z,25.73
2023-04-17T11:18:40.380Z,25.68
2023-04-17T11:19:40.367Z,25.11
2023-04-17T11:20:40.356Z,24.92
2023-04-17T11:21:40.838Z,24.53
2023-04-17T11:22:40.826Z,25.52
2023-04-17T11:23:40.346Z,25.88
2023-04-17T11:24:40.333Z,25.50
2023-04-17T11:25:40.330Z,26.32
2023-04-17T11:26:40.320Z,26.59
2023-04-17T11:27:40.299Z,26.34
2023-04-17T11:28:40.297Z,26.15
2023-04-17T11:29:40.292Z,26.18
2023-04-17T11:30:40.308Z,26.26
2023-04-17T11:31:40.329Z,26.30
2023-04-17T11:32:40.382Z,26.32
2023-04-17T11:33:40.296Z,26.41
2023-04-17T11:34:40.347Z,26.33
2023-04-17T11:35:40.423Z,26.22
2023-04-17T11:36:40.472Z,26.21
2023-04-17T11:37:40.521Z,26.19
2023-04-17T11:38:40.526Z,26.22
2023-04-17T11:39:40.584Z,26.23
2023-04-17T11:40:40.620Z,26.22
2023-04-17T11:41:40.663Z,26.23
2023-04-17T11:42:40.694Z,26.18
2023-04-17T11:43:40.724Z,26.26
2023-04-17T11:44:40.765Z,26.24
2023-04-17T11:45:40.817Z,26.23
2023-04-17T11:46:41.049Z,26.27
2023-04-17T11:47:40.950Z,26.28
2023-04-17T11:48:40.942Z,26.28
2023-04-17T11:49:40.950Z,26.24
2023-04-17T11:50:41.012Z,26.25
2023-04-17T11:51:41.028Z,26.23
2023-04-17T11:52:41.079Z,26.19
2023-04-17T11:53:41.105Z,26.23
2023-04-17T11:54:41.158Z,26.26
2023-04-17T11:55:41.192Z,26.22
2023-04-17T11:56:41.261Z,26.23
2023-04-17T11:57:41.269Z,26.20
2023-04-17T11:58:41.282Z,26.18
2023-04-17T11:59:41.335Z,26.20
2023-04-17T12:00:41.371Z,26.16
2023-04-17T12:01:41.840Z,26.17
2023-04-17T12:02:41.532Z,26.14
2023-04-17T12:03:43.729Z,26.17
2023-04-17T12:04:41.694Z,26.08
2023-04-17T12:05:41.527Z,26.07
2023-04-17T12:06:41.843Z,26.10
2023-04-17T12:07:41.438Z,26.11
2023-04-17T12:08:41.424Z,26.10
2023-04-17T12:09:41.421Z,26.01
2023-04-17T12:10:41.409Z,26.00
2023-04-17T12:11:41.879Z,25.94
2023-04-17T12:12:41.424Z,25.91
2023-04-17T12:13:41.408Z,25.94
2023-04-17T12:14:41.378Z,25.95
2023-04-17T12:15:41.376Z,25.98
2023-04-17T12:16:41.484Z,26.03
2023-04-17T12:17:41.408Z,26.00
2023-04-17T12:18:41.356Z,26.00
2023-04-17T12:19:41.368Z,25.90
2023-04-17T12:20:41.366Z,25.91
2023-04-17T12:21:41.853Z,25.84
2023-04-17T12:22:41.343Z,25.76
2023-04-17T12:23:41.355Z,25.77
2023-04-17T12:24:41.320Z,25.86
2023-04-17T12:25:41.320Z,25.93
2023-04-17T12:26:41.339Z,25.89
2023-04-17T12:27:41.292Z,25.82
2023-04-17T12:28:41.292Z,25.85
2023-04-17T12:29:44.370Z,25.88
2023-04-17T12:30:41.293Z,25.92
2023-04-17T12:31:41.284Z,25.93
2023-04-17T12:32:41.302Z,25.89
2023-04-17T12:33:41.279Z,25.88
2023-04-17T12:34:41.260Z,25.78
2023-04-17T12:35:41.251Z,25.68
2023-04-17T12:36:41.343Z,25.71
2023-04-17T12:37:41.246Z,25.68
2023-04-17T12:38:41.256Z,25.75
2023-04-17T12:39:41.228Z,25.73
2023-04-17T12:40:41.221Z,25.69
2023-04-17T12:41:41.229Z,25.57
2023-04-17T12:42:48.840Z,25.51
2023-04-17T12:43:42.231Z,25.51
2023-04-17T12:44:41.206Z,25.62
2023-04-17T12:45:42.522Z,25.65
2023-04-17T12:46:41.175Z,25.57
2023-04-17T12:47:41.225Z,25.59
2023-04-17T12:48:41.233Z,25.70
2023-04-17T12:49:41.180Z,25.49
2023-04-17T12:50:41.165Z,25.45
2023-04-17T12:51:41.180Z,25.53
2023-04-17T12:52:41.187Z,25.53